Time;durP1;ratioP1;P1;durP2;ratioP2;P2;SDS_P1;SDS_P2;PMS_P1;PMS_P2;Temp;Humidity;BMP_temperature;BMP_pressure;BME280_temperature;BME280_humidity;BME280_pressure;Samples;Min_cycle;Max_cycle;Signal;HPM_P1;HPM_P2
2023/07/13 00:01:16;;;;;;;6.35;2.40;;;;;;;14.54;82.54;101397.19;4958294;29;20023;-82
2023/07/13 00:03:42;;;;;;;7.90;2.50;;;;;;;14.58;82.66;101409.03;4958051;29;20121;-82
2023/07/13 00:06:08;;;;;;;7.25;2.35;;;;;;;14.54;82.50;101410.16;4958232;29;20105;-81
2023/07/13 00:08:34;;;;;;;6.88;2.40;;;;;;;14.56;82.66;101416.13;4957804;29;20069;-82
2023/07/13 00:11:03;;;;;;;6.88;2.25;;;;;;;14.41;83.07;101396.34;4957765;29;20029;-82
2023/07/13 00:13:30;;;;;;;7.57;2.40;;;;;;;14.54;83.24;101425.75;4958021;29;20023;-81
2023/07/13 00:15:58;;;;;;;5.72;2.72;;;;;;;14.40;83.70;101406.88;4957636;29;20102;-81
2023/07/13 00:18:23;;;;;;;5.20;2.08;;;;;;;14.35;83.94;101397.63;4958047;29;20042;-81
2023/07/13 00:20:49;;;;;;;10.95;2.90;;;;;;;14.40;84.26;101407.69;4957979;29;20030;-81
2023/07/13 00:25:56;;;;;;;8.47;2.50;;;;;;;14.30;85.07;101404.06;5276022;23;20066;-81
2023/07/13 00:28:22;;;;;;;6.38;2.45;;;;;;;14.30;85.10;101406.66;4957798;29;20027;-81
2023/07/13 00:30:47;;;;;;;6.75;2.63;;;;;;;14.20;85.52;101387.47;4957848;29;20039;-82
2023/07/13 00:33:12;;;;;;;8.38;2.30;;;;;;;14.25;85.68;101406.97;4940007;29;20042;-81
2023/07/13 00:35:39;;;;;;;11.15;3.00;;;;;;;14.15;85.65;101395.56;4957807;29;20043;-82
2023/07/13 00:38:04;;;;;;;6.78;2.55;;;;;;;14.02;86.16;101382.59;4957450;29;20522;-81
2023/07/13 01:03:20;;;;;;;6.45;2.42;;;;;;;13.52;88.15;101351.44;5155992;23;20149;-82
2023/07/13 01:05:49;;;;;;;7.93;2.67;;;;;;;14.00;88.57;101425.19;4957080;29;20092;-81
2023/07/13 01:08:15;;;;;;;9.40;3.17;;;;;;;13.38;88.40;101321.25;4955673;28;20106;-82
2023/07/13 01:10:50;;;;;;;9.02;2.53;;;;;;;13.74;88.49;101382.78;4956699;29;20103;-81
2023/07/13 01:13:15;;;;;;;8.02;2.75;;;;;;;13.99;88.67;101413.13;4956811;29;20119;-80
2023/07/13 01:15:46;;;;;;;8.90;2.70;;;;;;;13.94;89.12;101421.22;4956861;29;20469;-79
2023/07/13 01:18:20;;;;;;;6.28;2.25;;;;;;;13.92;89.60;101419.69;4956856;29;20075;-81
2023/07/13 01:21:00;;;;;;;13.07;3.15;;;;;;;13.89;89.63;101423.31;4956621;29;20596;-80
2023/07/13 01:23:27;;;;;;;6.78;2.50;;;;;;;13.75;90.18;101407.81;4956739;29;20050;-79
2023/07/13 01:25:53;;;;;;;8.15;2.47;;;;;;;13.84;90.58;101433.16;4956304;29;20027;-79
2023/07/13 01:28:19;;;;;;;10.25;2.38;;;;;;;13.88;90.60;101434.63;4956619;29;20503;-79
2023/07/13 01:30:46;;;;;;;11.30;3.40;;;;;;;13.73;91.05;101414.88;4956239;29;20023;-81
2023/07/13 01:33:14;;;;;;;6.10;2.55;;;;;;;13.83;91.22;101438.47;4956617;29;20050;-80
2023/07/13 01:35:41;;;;;;;7.53;3.08;;;;;;;13.81;91.02;101437.75;4956509;29;20033;-80
2023/07/13 01:38:08;;;;;;;9.02;2.80;;;;;;;13.39;91.16;101372.19;4956423;29;20023;-80
2023/07/13 01:40:34;;;;;;;8.85;2.40;;;;;;;13.62;91.69;101419.97;4956024;29;20071;-80
2023/07/13 01:43:00;;;;;;;10.30;3.00;;;;;;;13.46;91.96;101399.38;4956558;29;20381;-80
2023/07/13 01:45:25;;;;;;;11.13;2.85;;;;;;;13.66;92.25;101421.41;4956692;29;20023;-78
2023/07/13 01:47:50;;;;;;;11.57;3.20;;;;;;;13.57;92.25;101407.31;4956404;29;20151;-80
2023/07/13 01:50:16;;;;;;;10.23;3.13;;;;;;;13.67;92.57;101425.69;4956008;29;20037;-79
2023/07/13 01:52:42;;;;;;;8.18;2.88;;;;;;;13.69;92.59;101431.59;4956010;29;20031;-80
2023/07/13 01:55:07;;;;;;;8.52;2.78;;;;;;;13.67;92.91;101438.66;4956032;29;20082;-80
2023/07/13 01:57:33;;;;;;;9.70;2.88;;;;;;;13.52;93.24;101413.72;4956087;29;20023;-79
2023/07/13 01:59:58;;;;;;;9.27;2.92;;;;;;;13.63;93.24;101429.41;4939113;29;20489;-80
2023/07/13 02:02:24;;;;;;;7.03;2.63;;;;;;;13.30;93.28;101384.00;4955882;29;20054;-79
2023/07/13 02:04:49;;;;;;;10.32;2.97;;;;;;;13.24;93.75;101368.00;4956043;29;20110;-80
2023/07/13 02:07:15;;;;;;;7.72;2.88;;;;;;;13.45;93.91;101403.72;4955751;29;20026;-80
2023/07/13 02:09:41;;;;;;;9.73;2.83;;;;;;;13.60;94.18;101435.63;4955588;29;20033;-80
2023/07/13 02:12:07;;;;;;;8.00;2.92;;;;;;;13.57;94.91;101430.66;4938406;29;20370;-81
2023/07/13 02:14:32;;;;;;;9.40;2.95;;;;;;;13.55;95.03;101444.66;4956020;29;20167;-82
2023/07/13 02:16:58;;;;;;;8.75;3.05;;;;;;;13.53;95.35;101438.72;4956010;29;20031;-83
2023/07/13 02:19:23;;;;;;;10.82;3.00;;;;;;;13.44;95.74;101428.00;4955392;28;20077;-81
2023/07/13 02:21:48;;;;;;;11.18;2.83;;;;;;;13.27;96.03;101417.91;4955551;29;20031;-83
2023/07/13 02:24:17;;;;;;;8.98;2.90;;;;;;;13.44;96.50;101438.41;4938124;29;20051;-79
2023/07/13 02:26:43;;;;;;;7.88;2.78;;;;;;;13.39;96.39;101431.88;4955224;29;20381;-82
2023/07/13 02:29:09;;;;;;;10.18;2.90;;;;;;;13.27;97.02;101425.69;4955259;29;20023;-82
2023/07/13 02:31:35;;;;;;;9.93;3.00;;;;;;;13.20;97.33;101411.47;4955456;29;20050;-83
2023/07/13 02:34:01;;;;;;;7.25;2.88;;;;;;;13.17;97.76;101415.06;4937831;29;20035;-82
2023/07/13 02:36:26;;;;;;;8.45;2.63;;;;;;;13.06;97.67;101401.94;4955348;29;20559;-83
2023/07/13 02:38:51;;;;;;;8.93;3.10;;;;;;;13.14;98.14;101412.66;4955434;29;20034;-84
2023/07/13 02:41:17;;;;;;;10.25;3.17;;;;;;;13.00;98.21;101393.72;4955123;29;20108;-82
2023/07/13 02:43:42;;;;;;;9.45;3.38;;;;;;;13.28;98.66;101440.34;4937612;29;20074;-83
2023/07/13 02:46:08;;;;;;;8.18;2.60;;;;;;;13.26;98.58;101439.59;4955107;29;20133;-81
2023/07/13 02:48:34;;;;;;;15.25;3.58;;;;;;;13.26;99.36;101443.94;4954935;29;20062;-80
2023/07/13 02:50:59;;;;;;;7.35;3.17;;;;;;;13.24;99.36;101443.22;4955052;29;20023;-80
2023/07/13 02:53:25;;;;;;;10.57;2.95;;;;;;;13.17;99.51;101437.53;4955244;29;20059;-82
2023/07/13 02:55:50;;;;;;;7.20;3.03;;;;;;;13.16;99.77;101431.53;4955029;29;20090;-83
2023/07/13 02:58:19;;;;;;;10.00;3.45;;;;;;;13.22;100.00;101439.91;4954872;29;20023;-81
2023/07/13 03:00:46;;;;;;;10.80;3.10;;;;;;;13.01;100.00;101404.00;4955099;29;20027;-81
2023/07/13 03:03:13;;;;;;;7.82;2.70;;;;;;;13.18;100.00;101447.00;4954682;29;20050;-82
2023/07/13 03:05:44;;;;;;;9.18;3.22;;;;;;;13.16;100.00;101446.25;4955007;29;20031;-82
2023/07/13 03:08:10;;;;;;;;;;;;;;;13.18;98.77;101447.84;4955389;29;20023;-82
2023/07/13 03:10:35;;;;;;;12.43;3.25;;;;;;;12.99;100.00;101421.44;4954693;29;19914;-82
2023/07/13 03:13:01;;;;;;;8.55;3.03;;;;;;;13.00;100.00;101427.44;4954813;29;20075;-83
2023/07/13 03:15:27;;;;;;;9.07;3.03;;;;;;;13.10;100.00;101444.91;4954853;29;20476;-83
2023/07/13 03:17:52;;;;;;;8.13;3.58;;;;;;;13.09;100.00;101447.59;4954746;29;20035;-82
2023/07/13 03:20:18;;;;;;;8.73;3.30;;;;;;;12.76;100.00;101394.34;4937036;29;20047;-82
2023/07/13 03:22:43;;;;;;;7.70;3.17;;;;;;;12.99;100.00;101436.16;4937187;29;20185;-83
2023/07/13 03:25:09;;;;;;;10.13;3.25;;;;;;;13.07;100.00;101446.84;4954764;29;20484;-83
2023/07/13 03:27:34;;;;;;;9.30;3.08;;;;;;;13.01;100.00;101439.47;4954381;29;20027;-83
2023/07/13 03:29:59;;;;;;;13.38;3.53;;;;;;;12.84;100.00;101422.38;4954813;29;20358;-82
2023/07/13 03:32:25;;;;;;;11.07;3.65;;;;;;;12.92;100.00;101443.47;4954067;29;20483;-80
2023/07/13 03:34:50;;;;;;;12.05;3.53;;;;;;;12.92;100.00;101452.06;4954560;29;20090;-80
2023/07/13 03:37:15;;;;;;;8.80;3.60;;;;;;;12.92;100.00;101457.25;4954561;29;20039;-82
2023/07/13 03:39:41;;;;;;;12.68;3.70;;;;;;;12.93;100.00;101461.53;4954103;29;20071;-82
2023/07/13 03:42:07;;;;;;;12.75;3.80;;;;;;;12.92;100.00;101461.63;4954313;29;20468;-83
2023/07/13 03:44:32;;;;;;;10.55;4.07;;;;;;;12.75;100.00;101433.31;4954328;29;20031;-83
2023/07/13 03:46:57;;;;;;;9.70;3.55;;;;;;;12.95;100.00;101465.78;4954636;29;20033;-84
2023/07/13 03:49:23;;;;;;;9.48;3.17;;;;;;;12.75;100.00;101428.97;4954402;29;20118;-81
2023/07/13 03:51:48;;;;;;;8.13;3.38;;;;;;;12.64;100.00;101421.88;4954539;29;20487;-80
2023/07/13 03:54:13;;;;;;;8.52;3.17;;;;;;;12.95;100.00;101468.38;4954458;29;20027;-82
2023/07/13 03:56:39;;;;;;;9.50;3.95;;;;;;;12.71;100.00;101427.50;4954167;29;20023;-83
2023/07/13 03:59:04;;;;;;;9.65;4.25;;;;;;;13.01;100.00;101475.78;4954169;29;20023;-79
2023/07/13 04:01:29;;;;;;;9.65;3.33;;;;;;;13.01;100.00;101475.78;4954279;29;20769;-80
2023/07/13 04:03:55;;;;;;;13.98;4.15;;;;;;;12.97;100.00;101474.28;4954368;29;20082;-82
2023/07/13 04:06:24;;;;;;;10.10;3.53;;;;;;;13.08;100.00;101484.84;4954258;29;20514;-83
2023/07/13 04:08:52;;;;;;;10.40;3.97;;;;;;;12.95;100.00;101461.41;4937044;29;20118;-80
2023/07/13 04:11:19;;;;;;;10.85;4.38;;;;;;;12.63;100.00;101399.47;4954242;29;20055;-81
2023/07/13 04:13:46;;;;;;;11.10;4.22;;;;;;;13.02;100.00;101454.09;4953812;29;20027;-80
2023/07/13 04:16:13;;;;;;;9.77;4.00;;;;;;;13.25;100.00;101489.78;4954055;29;20469;-81
2023/07/13 04:18:38;;;;;;;10.15;3.97;;;;;;;13.39;100.00;101497.53;4936942;29;20480;-81
2023/07/13 04:21:04;;;;;;;9.90;3.47;;;;;;;13.42;100.00;101493.91;4954207;29;20098;-80
2023/07/13 04:23:29;;;;;;;10.55;4.28;;;;;;;13.48;100.00;101489.19;4954214;29;20110;-82
2023/07/13 04:25:54;;;;;;;14.85;4.45;;;;;;;13.65;100.00;101497.59;4954078;29;20504;-80
2023/07/13 04:28:23;;;;;;;11.10;3.63;;;;;;;13.70;100.00;101496.38;4953802;29;20027;-81
2023/07/13 04:30:48;;;;;;;12.93;4.13;;;;;;;13.83;100.00;101495.56;4954006;29;20064;-83
2023/07/13 04:33:14;;;;;;;11.95;4.55;;;;;;;13.92;100.00;101502.75;4954192;29;20023;-84
2023/07/13 04:35:39;;;;;;;9.07;3.70;;;;;;;13.97;100.00;101503.31;4921114;29;20031;-84
2023/07/13 04:38:05;;;;;;;13.32;4.53;;;;;;;14.02;100.00;101507.25;4953837;29;20038;-85
2023/07/13 04:40:31;;;;;;;10.45;4.00;;;;;;;14.05;100.00;101501.84;4953990;29;20039;-80
2023/07/13 04:42:56;;;;;;;13.52;4.80;;;;;;;13.96;100.00;101473.91;4954780;28;20481;-84
2023/07/13 04:45:24;;;;;;;13.13;4.55;;;;;;;14.22;100.00;101513.69;4957335;29;20027;-78
2023/07/13 04:47:49;;;;;;;13.60;4.50;;;;;;;14.12;100.00;101488.44;4957567;29;20050;-85
2023/07/13 04:50:18;;;;;;;15.63;5.00;;;;;;;14.02;100.00;101464.84;4957582;29;20070;-84
2023/07/13 04:52:43;;;;;;;19.30;5.43;;;;;;;14.33;100.00;101507.78;4957287;29;20392;-85
2023/07/13 04:55:09;;;;;;;14.23;6.07;;;;;;;14.50;100.00;101509.25;4957094;29;20035;-85
2023/07/13 04:57:34;;;;;;;17.67;6.13;;;;;;;14.52;100.00;101509.97;4957034;29;20031;-84
2023/07/13 05:00:01;;;;;;;14.98;6.43;;;;;;;14.46;100.00;101490.47;4957281;29;20027;-80
2023/07/13 05:02:28;;;;;;;15.85;6.25;;;;;;;14.66;100.00;101515.09;4956944;29;20123;-81
2023/07/13 05:04:53;;;;;;;18.27;7.15;;;;;;;14.69;100.00;101506.22;4939079;29;20126;-82
2023/07/13 05:07:18;;;;;;;16.75;6.82;;;;;;;14.83;100.00;101516.50;4957110;29;20399;-85
2023/07/13 05:09:44;;;;;;;17.00;7.40;;;;;;;14.82;100.00;101510.47;4956883;29;20031;-83
2023/07/13 05:12:10;;;;;;;16.58;6.40;;;;;;;15.13;100.00;101475.31;4956958;29;20033;-80
2023/07/13 05:14:35;;;;;;;17.42;6.15;;;;;;;15.48;100.00;101488.38;4956564;29;20034;-82
2023/07/13 05:17:00;;;;;;;17.70;6.18;;;;;;;15.82;99.10;101498.09;4956889;29;20122;-79
2023/07/13 05:19:26;;;;;;;16.83;7.18;;;;;;;16.09;97.00;101514.28;4939557;29;20066;-78
2023/07/13 05:21:51;;;;;;;18.50;8.00;;;;;;;16.29;95.98;101528.41;4956733;29;20506;-77
2023/07/13 05:24:17;;;;;;;14.65;6.93;;;;;;;16.52;95.26;101526.69;4956479;29;20364;-76
2023/07/13 05:26:42;;;;;;;15.93;7.43;;;;;;;16.69;93.52;101533.22;4956699;29;20027;-76
2023/07/13 05:29:07;;;;;;;18.42;7.63;;;;;;;16.76;92.67;101537.84;4956413;29;20035;-76
2023/07/13 05:31:33;;;;;;;19.38;8.73;;;;;;;16.46;92.44;101494.06;4956383;29;20050;-78
2023/07/13 05:33:58;;;;;;;15.93;7.90;;;;;;;16.79;92.65;101541.97;4956930;29;20071;-77
2023/07/13 05:36:23;;;;;;;19.08;8.80;;;;;;;16.64;92.18;101503.06;4956500;29;20029;-77
2023/07/13 05:38:49;;;;;;;22.65;9.90;;;;;;;16.91;92.45;101536.66;4956284;29;20045;-77
2023/07/13 05:41:14;;;;;;;23.05;9.45;;;;;;;16.81;91.82;101522.66;4956375;29;20027;-77
2023/07/13 05:43:39;;;;;;;19.02;8.50;;;;;;;17.01;91.99;101541.13;4947268;29;20078;-77
2023/07/13 05:46:05;;;;;;;22.00;9.07;;;;;;;17.11;92.10;101542.09;4938541;29;20047;-80
2023/07/13 05:48:30;;;;;;;22.15;9.25;;;;;;;17.31;90.78;101546.53;4920122;29;20079;-78
2023/07/13 05:50:55;;;;;;;19.13;9.40;;;;;;;17.49;89.87;101547.66;4936793;29;20024;-76
2023/07/13 05:53:21;;;;;;;22.42;9.93;;;;;;;17.23;89.84;101519.41;4937022;29;20557;-78
2023/07/13 05:55:47;;;;;;;20.48;9.00;;;;;;;17.43;89.37;101524.66;4935909;29;20034;-80
2023/07/13 05:58:13;;;;;;;23.40;11.32;;;;;;;17.47;88.90;101553.97;4936573;29;20035;-78
2023/07/13 06:00:39;;;;;;;19.73;9.48;;;;;;;17.54;89.03;101555.13;4936659;29;20103;-77
2023/07/13 06:03:06;;;;;;;20.15;9.82;;;;;;;17.50;88.28;101543.25;4936501;29;20062;-78
2023/07/13 06:05:33;;;;;;;25.35;11.02;;;;;;;17.39;88.49;101531.06;4936596;29;20075;-78
2023/07/13 06:07:59;;;;;;;19.25;9.77;;;;;;;17.86;88.30;101564.78;4936750;29;20111;-79
2023/07/13 06:10:24;;;;;;;21.35;10.00;;;;;;;17.77;87.82;101571.56;4936528;29;20436;-78
2023/07/13 06:12:49;;;;;;;26.38;11.68;;;;;;;17.69;87.84;101566.09;4936636;29;20043;-79
2023/07/13 06:15:15;;;;;;;20.83;10.77;;;;;;;17.85;88.13;101571.78;4936446;29;20028;-80
2023/07/13 06:17:41;;;;;;;19.20;10.10;;;;;;;18.05;86.88;101576.19;4936668;29;20035;-79
2023/07/13 06:20:07;;;;;;;21.05;10.40;;;;;;;18.06;86.37;101571.78;4936278;29;20159;-79
2023/07/13 06:22:32;;;;;;;18.05;8.88;;;;;;;18.41;85.90;101581.13;4937048;29;20050;-80
2023/07/13 06:24:57;;;;;;;22.88;11.32;;;;;;;18.45;84.79;101590.34;4936743;29;20529;-78
2023/07/13 06:27:23;;;;;;;22.58;10.98;;;;;;;18.39;84.38;101588.28;4936711;29;20375;-83
2023/07/13 06:29:49;;;;;;;25.17;11.55;;;;;;;18.10;86.11;101577.63;4919142;29;20027;-80
2023/07/13 06:32:16;;;;;;;23.25;11.82;;;;;;;18.18;86.51;101589.06;4936249;29;20060;-80
2023/07/13 06:34:41;;;;;;;20.85;11.05;;;;;;;18.31;85.76;101589.72;4936217;29;20028;-80
2023/07/13 06:37:07;;;;;;;23.63;11.52;;;;;;;18.31;85.21;101592.34;4936040;29;20361;-80
2023/07/13 06:39:32;;;;;;;23.20;11.50;;;;;;;18.25;85.56;101584.16;4936394;29;20050;-80
2023/07/13 06:42:00;;;;;;;22.95;12.85;;;;;;;18.25;85.30;101587.63;4936403;29;20392;-81
2023/07/13 06:44:48;;;;;;;22.52;12.68;;;;;;;17.82;85.53;101538.06;4935940;29;20023;-81
2023/07/13 06:52:36;;;;;;;23.27;12.02;;;;;;;17.90;86.77;101577.47;4950096;23;20087;-81
2023/07/13 06:55:02;;;;;;;24.98;13.10;;;;;;;17.85;86.85;101576.19;4955040;29;20023;-81
2023/07/13 06:57:28;;;;;;;23.42;11.40;;;;;;;18.06;86.41;101577.03;4955111;29;20110;-81
2023/07/13 06:59:53;;;;;;;19.23;11.43;;;;;;;18.01;85.87;101561.75;4937481;29;20027;-81
2023/07/13 07:02:18;;;;;;;19.25;10.75;;;;;;;18.10;85.82;101559.31;4954649;29;20090;-81
2023/07/13 07:04:44;;;;;;;20.48;10.73;;;;;;;18.29;85.76;101593.44;4955035;29;20055;-81
2023/07/13 07:07:11;;;;;;;24.45;11.43;;;;;;;18.23;85.77;101579.06;4954711;28;20118;-81
2023/07/13 07:09:37;;;;;;;22.67;11.60;;;;;;;18.58;85.16;101617.13;4954971;29;20122;-80
2023/07/13 07:12:03;;;;;;;19.50;11.00;;;;;;;18.76;84.66;101618.22;4937754;29;20053;-82
2023/07/13 07:14:29;;;;;;;19.98;11.70;;;;;;;18.42;84.25;101567.06;4937539;29;20449;-81
2023/07/13 07:16:54;;;;;;;19.40;10.95;;;;;;;18.76;83.37;101610.38;4954770;29;20027;-80
2023/07/13 07:19:20;;;;;;;22.60;11.82;;;;;;;18.61;82.81;101568.00;4961063;23;20054;-81
2023/07/13 07:21:45;;;;;;;17.98;10.55;;;;;;;18.72;82.17;101561.06;4954529;29;20031;-81
2023/07/13 07:24:10;;;;;;;23.52;10.82;;;;;;;19.29;81.71;101610.16;4954644;29;20027;-81
2023/07/13 07:26:36;;;;;;;22.10;10.43;;;;;;;19.31;79.92;101579.44;4954643;29;20086;-81
2023/07/13 07:29:01;;;;;;;21.42;10.57;;;;;;;19.35;79.83;101621.88;4954614;29;20162;-81
2023/07/13 07:31:26;;;;;;;17.00;10.68;;;;;;;19.02;79.61;101587.19;4953969;29;20026;-82
2023/07/13 07:33:52;;;;;;;19.75;11.43;;;;;;;19.20;80.56;101629.28;4950239;29;20351;-78
2023/07/13 07:36:17;;;;;;;17.00;9.73;;;;;;;19.33;80.08;101632.50;4935887;29;20466;-82
2023/07/13 07:38:43;;;;;;;19.25;10.48;;;;;;;19.26;80.52;101631.34;4935905;29;20071;-81
2023/07/13 07:41:09;;;;;;;19.17;10.00;;;;;;;18.92;80.65;101579.31;4935428;29;20393;-83
2023/07/13 07:43:34;;;;;;;21.35;10.32;;;;;;;18.22;79.71;101445.88;5019209;23;20047;-81
2023/07/13 07:46:14;;;;;;;20.95;11.20;;;;;;;18.26;80.18;101448.09;4934870;29;20028;-81
2023/07/13 07:48:55;;;;;;;22.85;11.27;;;;;;;19.59;79.21;101564.75;4935192;29;20028;-82
2023/07/13 07:51:21;;;;;;;18.95;9.77;;;;;;;20.38;75.58;101610.91;4935376;29;20035;-82
2023/07/13 07:54:07;;;;;;;18.30;9.88;;;;;;;20.41;74.55;101573.91;4935248;29;20359;-82
2023/07/13 07:56:33;;;;;;;19.13;9.77;;;;;;;20.85;72.87;101614.41;4920511;29;20055;-81
2023/07/13 07:58:58;;;;;;;18.65;10.52;;;;;;;20.78;71.57;101600.19;4935244;29;20036;-81
2023/07/13 08:01:23;;;;;;;21.08;9.65;;;;;;;21.09;71.17;101630.44;4934834;29;20027;-80
2023/07/13 08:03:49;;;;;;;18.27;9.40;;;;;;;21.25;71.38;101632.47;4934973;29;20028;-81
2023/07/13 08:06:14;;;;;;;16.80;9.48;;;;;;;21.16;67.13;101617.56;4934742;29;20035;-81
2023/07/13 08:08:44;;;;;;;13.30;8.10;;;;;;;20.95;68.54;101609.13;4935020;29;20031;-80
2023/07/13 08:11:10;;;;;;;12.40;7.50;;;;;;;21.14;69.33;101630.03;4935267;29;20024;-80
2023/07/13 08:13:35;;;;;;;21.75;9.00;;;;;;;21.27;69.96;101632.34;4934975;29;20087;-80
2023/07/13 08:16:01;;;;;;;15.68;8.32;;;;;;;21.33;68.96;101605.47;4935119;29;20036;-82
2023/07/13 08:18:28;;;;;;;21.10;9.25;;;;;;;21.59;68.48;101621.34;4936937;29;20059;-82
2023/07/13 08:20:55;;;;;;;17.20;8.45;;;;;;;21.36;65.91;101613.06;4938480;29;20027;-80
2023/07/13 08:23:21;;;;;;;14.43;7.47;;;;;;;21.34;68.16;101641.28;4938410;29;20079;-78
2023/07/13 08:25:53;;;;;;;16.13;7.75;;;;;;;21.44;67.72;101627.13;4938468;29;20032;-77
2023/07/13 08:28:20;;;;;;;14.00;7.63;;;;;;;21.56;67.73;101642.69;4938687;29;20071;-78
2023/07/13 08:30:48;;;;;;;14.95;7.43;;;;;;;21.30;66.72;101588.19;4938256;29;20024;-77
2023/07/13 08:33:21;;;;;;;12.27;7.15;;;;;;;21.26;66.59;101620.16;4921097;29;20461;-78
2023/07/13 08:35:50;;;;;;;12.88;7.43;;;;;;;21.27;67.25;101637.59;4938314;29;20024;-79
2023/07/13 08:38:16;;;;;;;10.15;7.13;;;;;;;21.46;63.73;101638.31;4938246;29;20111;-78
2023/07/13 08:40:43;;;;;;;12.18;7.03;;;;;;;21.67;64.07;101624.88;4938160;29;20032;-78
2023/07/13 08:43:16;;;;;;;11.85;7.05;;;;;;;21.91;63.71;101623.44;4938223;29;20065;-80
2023/07/13 08:45:53;;;;;;;12.32;6.88;;;;;;;21.77;64.47;101625.66;4938413;29;20060;-80
2023/07/13 08:48:33;;;;;;;11.50;7.13;;;;;;;21.75;66.85;101632.03;4938212;29;20042;-80
2023/07/13 08:51:21;;;;;;;13.02;7.43;;;;;;;21.39;65.57;101589.13;4938160;29;20039;-80
2023/07/13 08:53:50;;;;;;;12.23;7.30;;;;;;;21.27;63.23;101622.66;4938004;29;20397;-80
2023/07/13 08:56:21;;;;;;;12.13;8.00;;;;;;;21.46;65.14;101619.91;4938032;29;20032;-78
2023/07/13 08:58:51;;;;;;;12.10;7.82;;;;;;;21.52;64.88;101613.22;4937966;29;20123;-81
2023/07/13 09:01:32;;;;;;;13.43;8.00;;;;;;;21.73;63.95;101634.81;4937899;29;20016;-80
2023/07/13 09:04:00;;;;;;;12.90;7.43;;;;;;;21.86;63.44;101623.09;4920413;29;20035;-79
2023/07/13 09:06:38;;;;;;;12.38;7.70;;;;;;;21.87;62.95;101619.47;4937869;29;20039;-79
2023/07/13 09:09:33;;;;;;;12.13;6.90;;;;;;;21.62;61.86;101603.47;4937853;29;20031;-79
2023/07/13 09:12:11;;;;;;;13.73;7.53;;;;;;;21.75;62.66;101635.50;4937638;29;20032;-80
2023/07/13 09:14:47;;;;;;;15.25;7.68;;;;;;;21.87;62.15;101617.69;4920655;29;20034;-79
2023/07/13 09:17:24;;;;;;;13.55;7.75;;;;;;;21.98;63.30;101632.41;4937302;29;20035;-79
2023/07/13 09:20:17;;;;;;;11.85;8.02;;;;;;;22.17;62.51;101634.06;4937569;29;20035;-79
2023/07/13 09:22:42;;;;;;;13.77;8.35;;;;;;;22.23;60.15;101631.66;4937240;29;20115;-79
2023/07/13 09:25:31;;;;;;;12.80;8.05;;;;;;;22.53;60.26;101629.56;4937781;29;20380;-78
2023/07/13 09:28:02;;;;;;;11.55;7.57;;;;;;;22.69;59.09;101619.09;4937637;29;20027;-79
2023/07/13 09:30:38;;;;;;;13.25;7.78;;;;;;;22.86;58.26;101586.63;4936266;29;20031;-79
2023/07/13 09:33:04;;;;;;;14.32;7.80;;;;;;;23.12;56.87;101620.00;4937195;29;20028;-79
2023/07/13 09:35:30;;;;;;;12.90;7.95;;;;;;;22.79;57.76;101619.81;4937195;29;20481;-79
2023/07/13 09:38:10;;;;;;;11.88;8.00;;;;;;;22.48;57.77;101631.81;4937250;29;20482;-79
2023/07/13 09:41:02;;;;;;;11.00;8.30;;;;;;;22.38;58.50;101633.72;4937462;29;20110;-79
2023/07/13 09:43:28;;;;;;;13.85;7.53;;;;;;;22.16;59.48;101596.41;4936853;29;20115;-78
2023/07/13 09:45:55;;;;;;;11.48;7.50;;;;;;;22.41;59.72;101628.16;4937799;29;20166;-77
2023/07/13 09:48:20;;;;;;;13.27;7.47;;;;;;;22.60;58.88;101622.66;4937078;29;20024;-77
2023/07/13 09:50:46;;;;;;;10.75;7.38;;;;;;;22.63;58.95;101589.97;4936912;29;20370;-78
2023/07/13 09:53:19;;;;;;;12.65;7.50;;;;;;;23.10;57.43;101632.50;4936960;29;20410;-78
2023/07/13 09:55:46;;;;;;;9.00;6.63;;;;;;;23.21;57.14;101628.78;4937026;29;20058;-79
2023/07/13 09:58:22;;;;;;;10.40;6.95;;;;;;;23.24;57.62;101610.81;4936769;29;20035;-77
2023/07/13 10:01:04;;;;;;;10.38;6.25;;;;;;;23.28;56.75;101646.41;4936759;29;20035;-77
2023/07/13 10:03:39;;;;;;;9.93;6.18;;;;;;;22.87;55.49;101635.69;4936444;29;20079;-79
2023/07/13 10:06:13;;;;;;;9.88;5.50;;;;;;;22.75;57.81;101604.50;4936991;29;20485;-78
2023/07/13 10:08:39;;;;;;;9.50;6.20;;;;;;;22.89;57.74;101639.00;4936229;29;20032;-76
2023/07/13 10:11:17;;;;;;;9.02;6.47;;;;;;;22.61;56.39;101637.47;4936669;29;20135;-79
2023/07/13 10:13:48;;;;;;;10.60;6.35;;;;;;;22.05;58.02;101601.88;4936645;29;20024;-79
2023/07/13 10:16:15;;;;;;;11.43;7.07;;;;;;;21.97;61.66;101642.09;4936748;29;20020;-79
2023/07/13 10:18:48;;;;;;;9.10;6.22;;;;;;;21.72;63.25;101633.13;4919350;29;20024;-79
2023/07/13 10:21:18;;;;;;;12.52;6.60;;;;;;;21.40;64.75;101644.16;4936603;29;20019;-78
2023/07/13 10:23:47;;;;;;;9.25;6.90;;;;;;;21.18;63.38;101605.13;4936488;29;20038;-80
2023/07/13 10:26:17;;;;;;;11.10;6.50;;;;;;;21.56;64.01;101640.06;4935260;29;20079;-79
2023/07/13 10:28:49;;;;;;;8.40;6.25;;;;;;;21.50;62.00;101623.06;4937028;29;20044;-79
2023/07/13 10:31:15;;;;;;;;;;;;;;;21.89;62.72;101641.19;4936855;29;20032;-78
2023/07/13 10:33:41;;;;;;;10.52;6.03;;;;;;;22.11;61.16;101640.75;4919047;29;19917;-78
2023/07/13 10:36:31;;;;;;;10.65;6.50;;;;;;;22.11;58.68;101648.63;4936159;29;20035;-78
2023/07/13 10:38:58;;;;;;;10.48;6.03;;;;;;;22.32;59.48;101614.13;4936012;29;20864;-78
2023/07/13 10:41:27;;;;;;;10.85;6.47;;;;;;;22.93;58.09;101639.53;4936129;29;20056;-76
2023/07/13 10:43:57;;;;;;;10.73;6.75;;;;;;;23.10;55.63;101633.31;4935841;29;20409;-78
2023/07/13 10:46:27;;;;;;;12.18;6.38;;;;;;;23.69;56.37;101646.53;4918625;29;20073;-76
2023/07/13 10:48:57;;;;;;;10.20;5.40;;;;;;;24.19;54.53;101642.97;4935621;29;20030;-79
2023/07/13 10:51:23;;;;;;;9.95;5.32;;;;;;;24.46;52.42;101655.81;4936099;29;20028;-77
2023/07/13 10:54:15;;;;;;;10.18;4.82;;;;;;;24.62;53.74;101644.41;4935967;29;20087;-79
2023/07/13 10:56:41;;;;;;;9.50;5.03;;;;;;;24.47;50.82;101667.19;4936154;29;20028;-79
2023/07/13 10:59:14;;;;;;;9.05;5.40;;;;;;;24.30;53.34;101656.63;4935969;29;20041;-78
2023/07/13 11:01:54;;;;;;;11.68;4.97;;;;;;;24.09;52.68;101652.81;4935816;29;20042;-78
2023/07/13 11:04:20;;;;;;;9.48;5.15;;;;;;;23.87;53.27;101647.22;4935542;29;20597;-78
2023/07/13 11:06:49;;;;;;;10.88;5.25;;;;;;;24.05;53.69;101681.38;4935893;29;20097;-78
2023/07/13 11:09:36;;;;;;;7.10;4.38;;;;;;;23.95;53.86;101680.69;4935541;29;20024;-79
2023/07/13 11:12:51;;;;;;;10.45;4.80;;;;;;;24.05;53.08;101673.44;4935822;29;20160;-79
2023/07/13 11:15:33;;;;;;;8.88;4.18;;;;;;;23.84;53.42;101646.72;4839957;29;20037;-78
2023/07/13 11:18:03;;;;;;;8.05;4.47;;;;;;;24.11;53.14;101664.06;4840000;29;20048;-79
2023/07/13 11:20:34;;;;;;;10.00;4.72;;;;;;;24.04;53.08;101648.88;4839893;29;20038;-77
2023/07/13 11:23:19;;;;;;;10.13;4.95;;;;;;;24.19;53.90;101672.81;4840093;29;20038;-79
2023/07/13 11:25:47;;;;;;;13.73;5.15;;;;;;;23.66;55.02;101675.88;4840023;29;20046;-79
2023/07/13 11:28:12;;;;;;;10.23;6.18;;;;;;;22.94;64.25;101682.50;4839901;29;20095;-78
2023/07/13 11:31:02;;;;;;;11.80;6.93;;;;;;;22.32;65.44;101677.28;4840022;29;20483;-79
2023/07/13 11:33:48;;;;;;;12.95;6.85;;;;;;;21.64;70.13;101653.28;4840134;29;20124;-78
2023/07/13 11:36:16;;;;;;;11.70;6.95;;;;;;;21.71;71.23;101684.06;4840198;29;20392;-79
2023/07/13 11:38:50;;;;;;;10.30;6.80;;;;;;;21.68;70.40;101655.47;4839994;29;20106;-79
2023/07/13 11:41:38;;;;;;;12.35;7.70;;;;;;;22.15;66.79;101689.47;4839843;29;20038;-78
2023/07/13 11:44:23;;;;;;;10.77;5.75;;;;;;;22.11;66.04;101687.28;4824401;29;20481;-78
2023/07/13 11:46:52;;;;;;;10.05;4.80;;;;;;;21.74;66.83;101636.47;4839903;29;20101;-76
2023/07/13 11:49:22;;;;;;;10.63;5.53;;;;;;;21.86;65.01;101680.94;4839481;29;20041;-79
2023/07/13 11:51:53;;;;;;;8.55;4.45;;;;;;;21.76;65.06;101676.56;4906072;29;20042;-77
2023/07/13 11:54:55;;;;;;;7.28;4.13;;;;;;;21.80;63.45;101677.09;4938941;29;20027;-79